sensor_id;sensor_type;location;lat;lon;timestamp;temperature;humidity
8856;DHT22;4464;50.882;4.730;2023-07-09T00:01:59;23.60;99.90
8856;DHT22;4464;50.882;4.730;2023-07-09T00:04:25;23.60;99.90
8856;DHT22;4464;50.882;4.730;2023-07-09T00:06:51;23.50;99.90
8856;DHT22;4464;50.882;4.730;2023-07-09T00:09:18;23.50;99.90
8856;DHT22;4464;50.882;4.730;2023-07-09T00:11:45;23.50;99.90
8856;DHT22;4464;50.882;4.730;2023-07-09T00:14:15;23.50;99.90
8856;DHT22;4464;50.882;4.730;2023-07-09T00:16:43;23.50;99.90
8856;DHT22;4464;50.882;4.730;2023-07-09T00:19:17;23.40;99.90
8856;DHT22;4464;50.882;4.730;2023-07-09T00:21:48;23.40;99.90
8856;DHT22;4464;50.882;4.730;2023-07-09T00:24:19;23.30;99.90
8856;DHT22;4464;50.882;4.730;2023-07-09T00:26:45;23.30;99.90
8856;DHT22;4464;50.882;4.730;2023-07-09T00:29:13;23.30;99.90
8856;DHT22;4464;50.882;4.730;2023-07-09T00:31:40;23.20;99.90
8856;DHT22;4464;50.882;4.730;2023-07-09T00:34:11;23.20;99.90
8856;DHT22;4464;50.882;4.730;2023-07-09T00:36:42;23.10;99.90
8856;DHT22;4464;50.882;4.730;2023-07-09T00:39:16;23.10;99.90
8856;DHT22;4464;50.882;4.730;2023-07-09T00:41:44;23.10;99.90
8856;DHT22;4464;50.882;4.730;2023-07-09T00:49:26;23.10;99.90
8856;DHT22;4464;50.882;4.730;2023-07-09T00:51:53;23.10;99.90
8856;DHT22;4464;50.882;4.730;2023-07-09T00:54:28;23.00;99.90
8856;DHT22;4464;50.882;4.730;2023-07-09T00:56:59;23.00;99.90
8856;DHT22;4464;50.882;4.730;2023-07-09T00:59:29;23.00;99.90
8856;DHT22;4464;50.882;4.730;2023-07-09T01:01:57;23.00;99.90
8856;DHT22;4464;50.882;4.730;2023-07-09T01:04:27;22.90;99.90
8856;DHT22;4464;50.882;4.730;2023-07-09T01:06:55;22.90;99.90
8856;DHT22;4464;50.882;4.730;2023-07-09T01:09:27;22.80;99.90
8856;DHT22;4464;50.882;4.730;2023-07-09T01:11:53;22.80;99.90
8856;DHT22;4464;50.882;4.730;2023-07-09T01:14:23;22.80;99.90
8856;DHT22;4464;50.882;4.730;2023-07-09T01:17:03;22.80;99.90
8856;DHT22;4464;50.882;4.730;2023-07-09T01:19:36;22.80;99.90
8856;DHT22;4464;50.882;4.730;2023-07-09T01:22:10;22.80;99.90
8856;DHT22;4464;50.882;4.730;2023-07-09T01:27:37;22.80;99.90
8856;DHT22;4464;50.882;4.730;2023-07-09T01:30:29;22.80;99.90
8856;DHT22;4464;50.882;4.730;2023-07-09T01:32:58;22.80;99.90
8856;DHT22;4464;50.882;4.730;2023-07-09T01:35:25;22.70;99.90
8856;DHT22;4464;50.882;4.730;2023-07-09T01:37:54;22.80;99.90
8856;DHT22;4464;50.882;4.730;2023-07-09T01:40:24;22.80;99.90
8856;DHT22;4464;50.882;4.730;2023-07-09T01:42:53;22.70;99.90
8856;DHT22;4464;50.882;4.730;2023-07-09T01:45:21;22.70;99.90
8856;DHT22;4464;50.882;4.730;2023-07-09T01:47:47;22.60;99.90
8856;DHT22;4464;50.882;4.730;2023-07-09T01:50:13;22.60;99.90
8856;DHT22;4464;50.882;4.730;2023-07-09T01:52:41;22.50;99.90
8856;DHT22;4464;50.882;4.730;2023-07-09T01:55:12;22.50;99.90
8856;DHT22;4464;50.882;4.730;2023-07-09T01:57:38;22.40;99.90
8856;DHT22;4464;50.882;4.730;2023-07-09T02:00:14;22.40;99.90
8856;DHT22;4464;50.882;4.730;2023-07-09T02:02:45;22.40;99.90
8856;DHT22;4464;50.882;4.730;2023-07-09T02:05:16;22.30;99.90
8856;DHT22;4464;50.882;4.730;2023-07-09T02:07:43;22.40;99.90
8856;DHT22;4464;50.882;4.730;2023-07-09T02:10:15;22.50;99.90
8856;DHT22;4464;50.882;4.730;2023-07-09T02:12:41;22.60;99.90
8856;DHT22;4464;50.882;4.730;2023-07-09T02:15:07;22.70;99.90
8856;DHT22;4464;50.882;4.730;2023-07-09T02:17:33;22.80;99.90
8856;DHT22;4464;50.882;4.730;2023-07-09T02:19:59;22.90;99.90
8856;DHT22;4464;50.882;4.730;2023-07-09T02:22:25;22.80;99.90
8856;DHT22;4464;50.882;4.730;2023-07-09T02:24:54;22.80;99.90
8856;DHT22;4464;50.882;4.730;2023-07-09T02:27:20;22.80;99.90
8856;DHT22;4464;50.882;4.730;2023-07-09T02:29:47;22.80;99.90
8856;DHT22;4464;50.882;4.730;2023-07-09T02:32:24;22.80;99.90
8856;DHT22;4464;50.882;4.730;2023-07-09T02:34:52;22.70;99.90
8856;DHT22;4464;50.882;4.730;2023-07-09T02:37:24;22.80;99.90
8856;DHT22;4464;50.882;4.730;2023-07-09T02:39:50;22.80;99.90
8856;DHT22;4464;50.882;4.730;2023-07-09T02:42:20;22.80;99.90
8856;DHT22;4464;50.882;4.730;2023-07-09T02:44:46;23.00;99.90
8856;DHT22;4464;50.882;4.730;2023-07-09T02:47:12;23.10;99.90
8856;DHT22;4464;50.882;4.730;2023-07-09T02:49:38;23.10;99.90
8856;DHT22;4464;50.882;4.730;2023-07-09T02:52:05;23.20;99.90
8856;DHT22;4464;50.882;4.730;2023-07-09T02:54:31;23.20;99.90
8856;DHT22;4464;50.882;4.730;2023-07-09T02:56:59;23.20;99.90
8856;DHT22;4464;50.882;4.730;2023-07-09T02:59:27;23.10;99.90
8856;DHT22;4464;50.882;4.730;2023-07-09T03:01:57;23.20;99.90
8856;DHT22;4464;50.882;4.730;2023-07-09T03:04:25;23.20;99.90
8856;DHT22;4464;50.882;4.730;2023-07-09T03:06:51;23.10;99.90
8856;DHT22;4464;50.882;4.730;2023-07-09T03:09:18;23.20;99.90
8856;DHT22;4464;50.882;4.730;2023-07-09T03:11:44;23.20;99.90
8856;DHT22;4464;50.882;4.730;2023-07-09T03:14:10;23.10;99.90
8856;DHT22;4464;50.882;4.730;2023-07-09T03:16:36;23.10;99.90
8856;DHT22;4464;50.882;4.730;2023-07-09T03:19:03;23.10;99.90
8856;DHT22;4464;50.882;4.730;2023-07-09T03:21:30;23.10;99.90
8856;DHT22;4464;50.882;4.730;2023-07-09T03:23:56;23.10;99.90
8856;DHT22;4464;50.882;4.730;2023-07-09T03:26:22;23.00;99.90
8856;DHT22;4464;50.882;4.730;2023-07-09T03:28:48;23.00;99.90
8856;DHT22;4464;50.882;4.730;2023-07-09T03:31:14;23.00;99.90
8856;DHT22;4464;50.882;4.730;2023-07-09T03:33:40;23.00;99.90
8856;DHT22;4464;50.882;4.730;2023-07-09T03:36:06;23.00;99.90
8856;DHT22;4464;50.882;4.730;2023-07-09T03:38:32;22.90;99.90
8856;DHT22;4464;50.882;4.730;2023-07-09T03:40:58;22.90;99.90
8856;DHT22;4464;50.882;4.730;2023-07-09T03:43:24;22.90;99.90
8856;DHT22;4464;50.882;4.730;2023-07-09T03:45:50;22.90;99.90
8856;DHT22;4464;50.882;4.730;2023-07-09T03:48:20;22.80;99.90
8856;DHT22;4464;50.882;4.730;2023-07-09T03:50:48;22.90;99.90
8856;DHT22;4464;50.882;4.730;2023-07-09T03:53:15;22.90;99.90
8856;DHT22;4464;50.882;4.730;2023-07-09T03:55:41;22.80;99.90
8856;DHT22;4464;50.882;4.730;2023-07-09T03:58:10;22.80;99.90
8856;DHT22;4464;50.882;4.730;2023-07-09T04:00:38;22.80;99.90
8856;DHT22;4464;50.882;4.730;2023-07-09T04:03:06;22.80;99.90
8856;DHT22;4464;50.882;4.730;2023-07-09T04:05:34;22.90;99.90
8856;DHT22;4464;50.882;4.730;2023-07-09T04:07:59;22.90;99.90
8856;DHT22;4464;50.882;4.730;2023-07-09T04:10:25;22.90;99.90
8856;DHT22;4464;50.882;4.730;2023-07-09T04:12:53;23.00;99.90
8856;DHT22;4464;50.882;4.730;2023-07-09T04:15:19;23.00;99.90
8856;DHT22;4464;50.882;4.730;2023-07-09T04:17:47;23.00;99.90
8856;DHT22;4464;50.882;4.730;2023-07-09T04:20:13;23.00;99.90
8856;DHT22;4464;50.882;4.730;2023-07-09T04:22:39;23.10;99.90
8856;DHT22;4464;50.882;4.730;2023-07-09T04:25:08;23.10;99.90
8856;DHT22;4464;50.882;4.730;2023-07-09T04:27:40;23.10;99.90
8856;DHT22;4464;50.882;4.730;2023-07-09T04:30:13;23.10;99.90
8856;DHT22;4464;50.882;4.730;2023-07-09T04:32:40;23.10;99.90
8856;DHT22;4464;50.882;4.730;2023-07-09T04:35:09;23.10;99.90
8856;DHT22;4464;50.882;4.730;2023-07-09T04:37:39;23.10;99.90
8856;DHT22;4464;50.882;4.730;2023-07-09T04:40:06;23.10;99.90
8856;DHT22;4464;50.882;4.730;2023-07-09T04:42:37;23.10;99.90
8856;DHT22;4464;50.882;4.730;2023-07-09T04:45:05;23.20;99.90
8856;DHT22;4464;50.882;4.730;2023-07-09T04:47:31;23.20;99.90
8856;DHT22;4464;50.882;4.730;2023-07-09T04:49:56;23.30;99.90
8856;DHT22;4464;50.882;4.730;2023-07-09T04:52:22;23.30;99.90
8856;DHT22;4464;50.882;4.730;2023-07-09T04:54:50;23.30;99.90
8856;DHT22;4464;50.882;4.730;2023-07-09T04:57:16;23.30;99.90
8856;DHT22;4464;50.882;4.730;2023-07-09T04:59:43;23.30;99.90
8856;DHT22;4464;50.882;4.730;2023-07-09T05:02:09;23.40;99.90
8856;DHT22;4464;50.882;4.730;2023-07-09T05:04:35;23.30;99.90
8856;DHT22;4464;50.882;4.730;2023-07-09T05:07:03;23.20;99.90
8856;DHT22;4464;50.882;4.730;2023-07-09T05:09:29;23.00;99.90
8856;DHT22;4464;50.882;4.730;2023-07-09T05:11:55;22.90;99.90
8856;DHT22;4464;50.882;4.730;2023-07-09T05:14:23;22.90;99.90
8856;DHT22;4464;50.882;4.730;2023-07-09T05:16:51;22.90;99.90
8856;DHT22;4464;50.882;4.730;2023-07-09T05:19:19;22.90;99.90
8856;DHT22;4464;50.882;4.730;2023-07-09T05:21:45;22.90;99.90
8856;DHT22;4464;50.882;4.730;2023-07-09T05:24:11;23.00;99.90
8856;DHT22;4464;50.882;4.730;2023-07-09T05:26:37;23.10;99.90
8856;DHT22;4464;50.882;4.730;2023-07-09T05:29:06;23.00;99.90
8856;DHT22;4464;50.882;4.730;2023-07-09T05:31:32;23.00;99.90
8856;DHT22;4464;50.882;4.730;2023-07-09T05:34:01;23.10;99.90
8856;DHT22;4464;50.882;4.730;2023-07-09T05:36:30;23.10;99.90
8856;DHT22;4464;50.882;4.730;2023-07-09T05:38:56;23.30;99.90
8856;DHT22;4464;50.882;4.730;2023-07-09T05:41:22;23.30;99.90
8856;DHT22;4464;50.882;4.730;2023-07-09T05:43:52;23.40;99.90
8856;DHT22;4464;50.882;4.730;2023-07-09T05:46:18;23.60;99.90
8856;DHT22;4464;50.882;4.730;2023-07-09T05:48:46;23.60;99.90
8856;DHT22;4464;50.882;4.730;2023-07-09T05:51:12;23.70;99.90
8856;DHT22;4464;50.882;4.730;2023-07-09T05:53:41;23.70;99.90
8856;DHT22;4464;50.882;4.730;2023-07-09T05:56:07;23.60;99.90
8856;DHT22;4464;50.882;4.730;2023-07-09T05:58:33;23.60;99.90
8856;DHT22;4464;50.882;4.730;2023-07-09T06:01:01;23.60;99.90
8856;DHT22;4464;50.882;4.730;2023-07-09T06:03:29;23.70;99.90
8856;DHT22;4464;50.882;4.730;2023-07-09T06:05:56;23.70;99.90
8856;DHT22;4464;50.882;4.730;2023-07-09T06:08:25;23.80;99.90
8856;DHT22;4464;50.882;4.730;2023-07-09T06:11:00;23.80;99.90
8856;DHT22;4464;50.882;4.730;2023-07-09T06:13:29;23.80;99.90
8856;DHT22;4464;50.882;4.730;2023-07-09T06:16:01;24.00;99.90
8856;DHT22;4464;50.882;4.730;2023-07-09T06:18:29;24.10;99.90
8856;DHT22;4464;50.882;4.730;2023-07-09T06:20:58;24.30;99.90
8856;DHT22;4464;50.882;4.730;2023-07-09T06:23:25;24.30;99.90
8856;DHT22;4464;50.882;4.730;2023-07-09T06:25:51;24.40;99.90
8856;DHT22;4464;50.882;4.730;2023-07-09T06:28:19;24.50;99.90
8856;DHT22;4464;50.882;4.730;2023-07-09T06:30:46;24.50;99.90
8856;DHT22;4464;50.882;4.730;2023-07-09T06:33:13;24.60;99.90
8856;DHT22;4464;50.882;4.730;2023-07-09T06:35:39;24.70;99.90
8856;DHT22;4464;50.882;4.730;2023-07-09T06:38:05;24.80;99.90
8856;DHT22;4464;50.882;4.730;2023-07-09T06:40:31;24.90;99.90
8856;DHT22;4464;50.882;4.730;2023-07-09T06:42:57;25.10;99.90
8856;DHT22;4464;50.882;4.730;2023-07-09T06:45:24;25.20;99.90
8856;DHT22;4464;50.882;4.730;2023-07-09T06:47:50;25.30;99.90
8856;DHT22;4464;50.882;4.730;2023-07-09T06:50:16;25.30;99.90
8856;DHT22;4464;50.882;4.730;2023-07-09T06:52:41;25.40;99.90
8856;DHT22;4464;50.882;4.730;2023-07-09T06:55:10;25.50;99.90
8856;DHT22;4464;50.882;4.730;2023-07-09T06:57:37;25.50;99.90
8856;DHT22;4464;50.882;4.730;2023-07-09T07:00:06;25.60;99.90
8856;DHT22;4464;50.882;4.730;2023-07-09T07:02:34;25.70;99.90
8856;DHT22;4464;50.882;4.730;2023-07-09T07:05:00;25.80;99.90
8856;DHT22;4464;50.882;4.730;2023-07-09T07:07:26;25.90;99.90
8856;DHT22;4464;50.882;4.730;2023-07-09T07:09:54;26.00;99.90
8856;DHT22;4464;50.882;4.730;2023-07-09T07:12:26;26.00;99.90
8856;DHT22;4464;50.882;4.730;2023-07-09T07:14:53;26.00;99.90
8856;DHT22;4464;50.882;4.730;2023-07-09T07:17:19;26.10;99.90
8856;DHT22;4464;50.882;4.730;2023-07-09T07:19:45;26.10;99.90
8856;DHT22;4464;50.882;4.730;2023-07-09T07:22:11;26.20;99.90
8856;DHT22;4464;50.882;4.730;2023-07-09T07:24:36;26.20;99.90
8856;DHT22;4464;50.882;4.730;2023-07-09T07:27:03;26.30;99.90
8856;DHT22;4464;50.882;4.730;2023-07-09T07:29:29;26.50;99.90
8856;DHT22;4464;50.882;4.730;2023-07-09T07:31:54;26.50;99.90
8856;DHT22;4464;50.882;4.730;2023-07-09T07:34:20;26.50;99.90
8856;DHT22;4464;50.882;4.730;2023-07-09T07:36:47;26.60;99.90
8856;DHT22;4464;50.882;4.730;2023-07-09T07:39:13;26.70;99.90
8856;DHT22;4464;50.882;4.730;2023-07-09T07:41:40;26.80;99.90
8856;DHT22;4464;50.882;4.730;2023-07-09T07:44:07;27.00;99.90
8856;DHT22;4464;50.882;4.730;2023-07-09T07:46:34;27.10;99.90
8856;DHT22;4464;50.882;4.730;2023-07-09T07:49:00;27.20;99.90
8856;DHT22;4464;50.882;4.730;2023-07-09T07:51:26;27.20;99.90
8856;DHT22;4464;50.882;4.730;2023-07-09T07:53:52;27.30;99.90
8856;DHT22;4464;50.882;4.730;2023-07-09T07:56:18;27.20;99.90
8856;DHT22;4464;50.882;4.730;2023-07-09T07:58:44;27.40;99.90
8856;DHT22;4464;50.882;4.730;2023-07-09T08:01:12;27.50;99.90
8856;DHT22;4464;50.882;4.730;2023-07-09T08:03:42;27.60;99.90
8856;DHT22;4464;50.882;4.730;2023-07-09T08:06:08;27.70;99.90
8856;DHT22;4464;50.882;4.730;2023-07-09T08:08:34;27.90;99.90
8856;DHT22;4464;50.882;4.730;2023-07-09T08:11:01;27.90;99.90
8856;DHT22;4464;50.882;4.730;2023-07-09T08:13:32;28.00;99.90
8856;DHT22;4464;50.882;4.730;2023-07-09T08:16:00;28.30;99.90
8856;DHT22;4464;50.882;4.730;2023-07-09T08:18:26;28.40;99.90
8856;DHT22;4464;50.882;4.730;2023-07-09T08:20:52;28.50;99.90
8856;DHT22;4464;50.882;4.730;2023-07-09T08:23:18;28.40;99.90
8856;DHT22;4464;50.882;4.730;2023-07-09T08:25:55;28.30;99.90
8856;DHT22;4464;50.882;4.730;2023-07-09T08:28:24;28.40;99.90
8856;DHT22;4464;50.882;4.730;2023-07-09T08:30:59;28.60;99.90
8856;DHT22;4464;50.882;4.730;2023-07-09T08:33:27;28.60;99.90
8856;DHT22;4464;50.882;4.730;2023-07-09T08:35:55;28.50;99.90
8856;DHT22;4464;50.882;4.730;2023-07-09T08:38:24;28.60;99.90
8856;DHT22;4464;50.882;4.730;2023-07-09T08:40:59;28.60;99.90
8856;DHT22;4464;50.882;4.730;2023-07-09T08:43:47;28.90;99.90
8856;DHT22;4464;50.882;4.730;2023-07-09T08:48:51;28.80;99.90
8856;DHT22;4464;50.882;4.730;2023-07-09T08:51:37;28.80;99.90
8856;DHT22;4464;50.882;4.730;2023-07-09T08:54:14;28.80;99.90
8856;DHT22;4464;50.882;4.730;2023-07-09T08:56:43;29.00;99.90
8856;DHT22;4464;50.882;4.730;2023-07-09T08:59:14;29.20;99.10
8856;DHT22;4464;50.882;4.730;2023-07-09T09:01:57;29.40;98.70
8856;DHT22;4464;50.882;4.730;2023-07-09T09:04:28;29.60;98.30
8856;DHT22;4464;50.882;4.730;2023-07-09T09:07:15;30.00;98.00
8856;DHT22;4464;50.882;4.730;2023-07-09T09:10:02;30.10;97.40
8856;DHT22;4464;50.882;4.730;2023-07-09T09:15:18;30.40;97.00
8856;DHT22;4464;50.882;4.730;2023-07-09T09:17:52;30.60;97.20
8856;DHT22;4464;50.882;4.730;2023-07-09T09:20:22;30.80;96.30
8856;DHT22;4464;50.882;4.730;2023-07-09T09:25:18;31.30;96.30
8856;DHT22;4464;50.882;4.730;2023-07-09T09:27:46;31.40;96.10
8856;DHT22;4464;50.882;4.730;2023-07-09T09:30:19;31.50;96.00
8856;DHT22;4464;50.882;4.730;2023-07-09T09:32:56;32.30;95.60
8856;DHT22;4464;50.882;4.730;2023-07-09T09:35:34;33.70;94.30
8856;DHT22;4464;50.882;4.730;2023-07-09T09:38:01;35.00;92.10
8856;DHT22;4464;50.882;4.730;2023-07-09T09:40:34;35.70;90.70
8856;DHT22;4464;50.882;4.730;2023-07-09T09:43:02;36.30;90.10
8856;DHT22;4464;50.882;4.730;2023-07-09T09:45:38;37.50;86.20
8856;DHT22;4464;50.882;4.730;2023-07-09T09:48:16;36.70;85.20
8856;DHT22;4464;50.882;4.730;2023-07-09T09:50:43;36.40;85.70
8856;DHT22;4464;50.882;4.730;2023-07-09T09:53:22;36.50;85.10
8856;DHT22;4464;50.882;4.730;2023-07-09T09:55:52;36.60;84.80
8856;DHT22;4464;50.882;4.730;2023-07-09T09:58:19;36.50;86.70
8856;DHT22;4464;50.882;4.730;2023-07-09T10:00:50;36.30;88.30
8856;DHT22;4464;50.882;4.730;2023-07-09T10:03:17;36.40;88.10
8856;DHT22;4464;50.882;4.730;2023-07-09T10:05:53;36.90;86.80
8856;DHT22;4464;50.882;4.730;2023-07-09T10:11:19;36.00;87.30
8856;DHT22;4464;50.882;4.730;2023-07-09T10:13:47;34.90;90.00
8856;DHT22;4464;50.882;4.730;2023-07-09T10:16:25;34.70;90.00
8856;DHT22;4464;50.882;4.730;2023-07-09T10:19:21;34.20;90.00
8856;DHT22;4464;50.882;4.730;2023-07-09T10:22:03;33.60;90.60
8856;DHT22;4464;50.882;4.730;2023-07-09T10:27:38;33.80;90.60
8856;DHT22;4464;50.882;4.730;2023-07-09T10:33:23;32.90;90.80
8856;DHT22;4464;50.882;4.730;2023-07-09T10:41:03;32.10;91.70
8856;DHT22;4464;50.882;4.730;2023-07-09T10:43:52;32.00;91.60
8856;DHT22;4464;50.882;4.730;2023-07-09T10:46:25;31.80;92.10
8856;DHT22;4464;50.882;4.730;2023-07-09T10:48:52;31.70;92.00
8856;DHT22;4464;50.882;4.730;2023-07-09T10:51:37;31.50;92.50
8856;DHT22;4464;50.882;4.730;2023-07-09T10:59:40;30.70;94.30
8856;DHT22;4464;50.882;4.730;2023-07-09T11:02:26;30.50;94.30
8856;DHT22;4464;50.882;4.730;2023-07-09T11:05:00;30.60;94.50
8856;DHT22;4464;50.882;4.730;2023-07-09T11:16:06;29.50;96.00
8856;DHT22;4464;50.882;4.730;2023-07-09T11:18:34;29.30;96.70
8856;DHT22;4464;50.882;4.730;2023-07-09T11:21:05;29.20;97.10
8856;DHT22;4464;50.882;4.730;2023-07-09T11:23:45;29.10;97.50
8856;DHT22;4464;50.882;4.730;2023-07-09T11:28:39;28.50;98.30
8856;DHT22;4464;50.882;4.730;2023-07-09T11:31:16;28.30;98.60
8856;DHT22;4464;50.882;4.730;2023-07-09T11:33:47;28.30;98.80
8856;DHT22;4464;50.882;4.730;2023-07-09T11:36:24;27.80;98.90
8856;DHT22;4464;50.882;4.730;2023-07-09T11:38:50;27.70;99.40
8856;DHT22;4464;50.882;4.730;2023-07-09T11:41:42;27.70;99.50
8856;DHT22;4464;50.882;4.730;2023-07-09T11:44:27;27.60;99.80
8856;DHT22;4464;50.882;4.730;2023-07-09T11:47:13;27.50;99.90
8856;DHT22;4464;50.882;4.730;2023-07-09T11:49:52;27.40;99.90
8856;DHT22;4464;50.882;4.730;2023-07-09T11:55:48;27.00;99.90
8856;DHT22;4464;50.882;4.730;2023-07-09T11:58:15;26.80;99.90
8856;DHT22;4464;50.882;4.730;2023-07-09T12:00:54;26.70;99.90
8856;DHT22;4464;50.882;4.730;2023-07-09T12:03:25;26.60;99.90
8856;DHT22;4464;50.882;4.730;2023-07-09T12:05:54;26.70;99.90
8856;DHT22;4464;50.882;4.730;2023-07-09T12:08:37;26.70;99.90
8856;DHT22;4464;50.882;4.730;2023-07-09T12:11:04;26.60;99.90
8856;DHT22;4464;50.882;4.730;2023-07-09T12:13:37;26.40;99.90
8856;DHT22;4464;50.882;4.730;2023-07-09T12:16:24;26.40;99.90
8856;DHT22;4464;50.882;4.730;2023-07-09T12:18:50;26.30;99.90
8856;DHT22;4464;50.882;4.730;2023-07-09T12:21:16;26.20;99.90
8856;DHT22;4464;50.882;4.730;2023-07-09T12:23:43;26.20;99.90
8856;DHT22;4464;50.882;4.730;2023-07-09T12:26:14;26.10;99.90
8856;DHT22;4464;50.882;4.730;2023-07-09T12:28:40;26.20;99.90
8856;DHT22;4464;50.882;4.730;2023-07-09T12:31:16;26.10;99.90
8856;DHT22;4464;50.882;4.730;2023-07-09T12:33:49;26.00;99.90
8856;DHT22;4464;50.882;4.730;2023-07-09T12:36:17;25.90;99.90
8856;DHT22;4464;50.882;4.730;2023-07-09T12:38:46;25.70;99.90
8856;DHT22;4464;50.882;4.730;2023-07-09T12:41:40;25.50;99.90
8856;DHT22;4464;50.882;4.730;2023-07-09T12:44:17;25.40;99.90
8856;DHT22;4464;50.882;4.730;2023-07-09T12:46:44;25.10;99.90
8856;DHT22;4464;50.882;4.730;2023-07-09T12:49:22;24.20;99.90
8856;DHT22;4464;50.882;4.730;2023-07-09T12:51:48;23.20;99.90
8856;DHT22;4464;50.882;4.730;2023-07-09T12:54:17;22.60;99.90
8856;DHT22;4464;50.882;4.730;2023-07-09T12:56:47;22.30;99.90
8856;DHT22;4464;50.882;4.730;2023-07-09T12:59:26;22.10;99.90
8856;DHT22;4464;50.882;4.730;2023-07-09T13:02:18;22.10;99.90
8856;DHT22;4464;50.882;4.730;2023-07-09T13:04:47;22.00;99.90
8856;DHT22;4464;50.882;4.730;2023-07-09T13:09:55;21.90;99.90
8856;DHT22;4464;50.882;4.730;2023-07-09T13:12:31;22.00;99.90
8856;DHT22;4464;50.882;4.730;2023-07-09T13:14:59;21.90;99.90
8856;DHT22;4464;50.882;4.730;2023-07-09T13:17:32;21.90;99.90
8856;DHT22;4464;50.882;4.730;2023-07-09T13:19:58;22.00;99.90
8856;DHT22;4464;50.882;4.730;2023-07-09T13:22:25;22.00;99.90
8856;DHT22;4464;50.882;4.730;2023-07-09T13:24:51;22.10;99.90
8856;DHT22;4464;50.882;4.730;2023-07-09T13:27:17;22.30;99.90
8856;DHT22;4464;50.882;4.730;2023-07-09T13:29:43;22.50;99.90
8856;DHT22;4464;50.882;4.730;2023-07-09T13:32:10;22.70;99.90
8856;DHT22;4464;50.882;4.730;2023-07-09T13:34:36;22.90;99.90
8856;DHT22;4464;50.882;4.730;2023-07-09T13:37:04;23.00;99.90
8856;DHT22;4464;50.882;4.730;2023-07-09T13:39:32;23.10;99.90
8856;DHT22;4464;50.882;4.730;2023-07-09T13:41:58;22.90;99.90
8856;DHT22;4464;50.882;4.730;2023-07-09T13:44:28;22.80;99.90
8856;DHT22;4464;50.882;4.730;2023-07-09T13:46:55;22.50;99.90
8856;DHT22;4464;50.882;4.730;2023-07-09T13:49:23;22.50;99.90
8856;DHT22;4464;50.882;4.730;2023-07-09T13:51:56;22.70;99.90
8856;DHT22;4464;50.882;4.730;2023-07-09T13:54:31;22.80;99.90
8856;DHT22;4464;50.882;4.730;2023-07-09T13:57:01;23.10;99.90
8856;DHT22;4464;50.882;4.730;2023-07-09T13:59:28;23.50;99.90
8856;DHT22;4464;50.882;4.730;2023-07-09T14:01:56;23.90;99.90
8856;DHT22;4464;50.882;4.730;2023-07-09T14:04:23;24.20;99.90
8856;DHT22;4464;50.882;4.730;2023-07-09T14:06:49;24.40;99.90
8856;DHT22;4464;50.882;4.730;2023-07-09T14:09:16;24.40;99.90
8856;DHT22;4464;50.882;4.730;2023-07-09T14:14:27;25.30;99.90
8856;DHT22;4464;50.882;4.730;2023-07-09T14:16:56;25.60;99.90
8856;DHT22;4464;50.882;4.730;2023-07-09T14:19:23;25.70;99.90
8856;DHT22;4464;50.882;4.730;2023-07-09T14:21:50;25.90;99.90
8856;DHT22;4464;50.882;4.730;2023-07-09T14:24:21;26.20;99.90
8856;DHT22;4464;50.882;4.730;2023-07-09T14:26:48;27.30;99.90
8856;DHT22;4464;50.882;4.730;2023-07-09T14:29:14;28.50;99.90
8856;DHT22;4464;50.882;4.730;2023-07-09T14:31:42;29.30;99.90
8856;DHT22;4464;50.882;4.730;2023-07-09T14:34:24;30.10;99.90
8856;DHT22;4464;50.882;4.730;2023-07-09T14:36:54;30.50;99.90
8856;DHT22;4464;50.882;4.730;2023-07-09T14:39:20;29.50;99.90
8856;DHT22;4464;50.882;4.730;2023-07-09T14:41:47;29.20;99.90
8856;DHT22;4464;50.882;4.730;2023-07-09T14:46:55;31.30;99.90
8856;DHT22;4464;50.882;4.730;2023-07-09T14:49:25;33.10;99.90
8856;DHT22;4464;50.882;4.730;2023-07-09T14:51:52;33.70;99.90
8856;DHT22;4464;50.882;4.730;2023-07-09T14:54:24;33.70;99.90
8856;DHT22;4464;50.882;4.730;2023-07-09T14:56:52;34.20;99.90
8856;DHT22;4464;50.882;4.730;2023-07-09T14:59:21;34.60;99.90
8856;DHT22;4464;50.882;4.730;2023-07-09T15:01:47;35.10;97.40
8856;DHT22;4464;50.882;4.730;2023-07-09T15:06:54;37.00;95.50
8856;DHT22;4464;50.882;4.730;2023-07-09T15:09:23;36.70;94.70
8856;DHT22;4464;50.882;4.730;2023-07-09T15:11:54;36.60;94.00
8856;DHT22;4464;50.882;4.730;2023-07-09T15:14:21;35.30;94.40
8856;DHT22;4464;50.882;4.730;2023-07-09T15:16:47;34.60;96.10
8856;DHT22;4464;50.882;4.730;2023-07-09T15:19:17;34.20;97.00
8856;DHT22;4464;50.882;4.730;2023-07-09T15:21:44;34.40;96.40
8856;DHT22;4464;50.882;4.730;2023-07-09T15:26:52;32.20;99.10
8856;DHT22;4464;50.882;4.730;2023-07-09T15:29:19;30.30;99.90
8856;DHT22;4464;50.882;4.730;2023-07-09T15:31:45;30.50;99.90
8856;DHT22;4464;50.882;4.730;2023-07-09T15:34:10;31.40;99.90
8856;DHT22;4464;50.882;4.730;2023-07-09T15:36:37;32.10;99.90
8856;DHT22;4464;50.882;4.730;2023-07-09T15:39:03;31.20;99.90
8856;DHT22;4464;50.882;4.730;2023-07-09T15:41:29;32.20;99.90
8856;DHT22;4464;50.882;4.730;2023-07-09T15:43:55;33.00;99.10
8856;DHT22;4464;50.882;4.730;2023-07-09T15:46:22;32.90;98.60
8856;DHT22;4464;50.882;4.730;2023-07-09T15:48:51;33.60;97.70
8856;DHT22;4464;50.882;4.730;2023-07-09T15:51:19;33.10;97.20
8856;DHT22;4464;50.882;4.730;2023-07-09T15:53:45;32.60;98.40
8856;DHT22;4464;50.882;4.730;2023-07-09T15:56:28;31.30;99.90
8856;DHT22;4464;50.882;4.730;2023-07-09T15:58:56;30.30;99.90
8856;DHT22;4464;50.882;4.730;2023-07-09T16:01:23;30.10;99.90
8856;DHT22;4464;50.882;4.730;2023-07-09T16:03:51;29.70;99.90
8856;DHT22;4464;50.882;4.730;2023-07-09T16:06:18;29.60;99.90
8856;DHT22;4464;50.882;4.730;2023-07-09T16:08:45;29.90;99.90
8856;DHT22;4464;50.882;4.730;2023-07-09T16:11:22;29.40;99.90
8856;DHT22;4464;50.882;4.730;2023-07-09T16:13:49;29.10;99.90
8856;DHT22;4464;50.882;4.730;2023-07-09T16:16:19;28.90;99.90
8856;DHT22;4464;50.882;4.730;2023-07-09T16:18:47;28.70;99.90
8856;DHT22;4464;50.882;4.730;2023-07-09T16:21:29;28.70;99.90
8856;DHT22;4464;50.882;4.730;2023-07-09T16:23:57;28.50;99.90
8856;DHT22;4464;50.882;4.730;2023-07-09T16:26:25;28.50;99.90
8856;DHT22;4464;50.882;4.730;2023-07-09T16:28:55;28.10;99.90
8856;DHT22;4464;50.882;4.730;2023-07-09T16:31:21;28.00;99.90
8856;DHT22;4464;50.882;4.730;2023-07-09T16:33:47;28.40;99.90
8856;DHT22;4464;50.882;4.730;2023-07-09T16:36:20;28.20;99.90
8856;DHT22;4464;50.882;4.730;2023-07-09T16:38:50;27.50;99.90
8856;DHT22;4464;50.882;4.730;2023-07-09T16:41:18;27.30;99.90
8856;DHT22;4464;50.882;4.730;2023-07-09T16:43:48;27.20;99.90
8856;DHT22;4464;50.882;4.730;2023-07-09T16:46:25;27.20;99.90
8856;DHT22;4464;50.882;4.730;2023-07-09T16:48:51;26.90;99.90
8856;DHT22;4464;50.882;4.730;2023-07-09T16:51:19;26.50;99.90
8856;DHT22;4464;50.882;4.730;2023-07-09T16:53:47;26.20;99.90
8856;DHT22;4464;50.882;4.730;2023-07-09T16:56:16;26.00;99.90
8856;DHT22;4464;50.882;4.730;2023-07-09T16:58:41;26.00;99.90
8856;DHT22;4464;50.882;4.730;2023-07-09T17:01:07;26.10;99.90
8856;DHT22;4464;50.882;4.730;2023-07-09T17:03:33;26.30;99.90
8856;DHT22;4464;50.882;4.730;2023-07-09T17:06:02;26.20;99.90
8856;DHT22;4464;50.882;4.730;2023-07-09T17:08:28;26.30;99.90
8856;DHT22;4464;50.882;4.730;2023-07-09T17:10:55;26.50;99.90
8856;DHT22;4464;50.882;4.730;2023-07-09T17:13:23;26.30;99.90
8856;DHT22;4464;50.882;4.730;2023-07-09T17:15:50;26.30;99.90
8856;DHT22;4464;50.882;4.730;2023-07-09T17:18:27;26.20;99.90
8856;DHT22;4464;50.882;4.730;2023-07-09T17:20:56;26.10;99.90